createdAt,value
2023-02-23T00:01:02.677Z,36.33
2023-02-23T00:03:05.737Z,37.20
2023-02-23T00:05:09.338Z,37.43
2023-02-23T00:07:13.602Z,34.83
2023-02-23T00:09:23.397Z,37.37
2023-02-23T00:11:28.026Z,37.73
2023-02-23T00:13:31.867Z,37.43
2023-02-23T00:15:34.743Z,36.40
2023-02-23T00:17:41.168Z,38.10
2023-02-23T00:19:44.506Z,40.00
2023-02-23T00:21:47.404Z,39.07
2023-02-23T00:23:53.116Z,39.70
2023-02-23T00:25:59.618Z,38.43
2023-02-23T00:28:02.601Z,37.37
2023-02-23T00:30:07.261Z,37.00
2023-02-23T00:32:10.294Z,37.40
2023-02-23T00:34:15.094Z,37.00
2023-02-23T00:36:18.192Z,38.00
2023-02-23T00:38:21.145Z,39.63
2023-02-23T00:40:25.664Z,39.63
2023-02-23T00:42:32.326Z,37.60
2023-02-23T00:44:40.595Z,38.50
2023-02-23T00:46:44.211Z,38.90
2023-02-23T00:48:47.471Z,38.47
2023-02-23T00:50:59.315Z,41.00
2023-02-23T00:53:02.205Z,41.10
2023-02-23T00:55:06.539Z,42.77
2023-02-23T00:57:11.090Z,41.03
2023-02-23T00:59:14.899Z,42.00
2023-02-23T01:01:18.613Z,44.00
2023-02-23T01:03:21.729Z,44.73
2023-02-23T01:05:24.950Z,41.67
2023-02-23T01:07:30.115Z,43.97
2023-02-23T01:09:34.122Z,45.10
2023-02-23T01:11:37.215Z,44.67
2023-02-23T01:13:43.047Z,46.03
2023-02-23T01:15:48.260Z,45.27
2023-02-23T01:17:51.376Z,45.40
2023-02-23T01:19:55.222Z,47.13
2023-02-23T01:21:58.199Z,45.97
2023-02-23T01:24:02.234Z,47.07
2023-02-23T01:26:05.427Z,46.70
2023-02-23T01:28:09.069Z,44.43
2023-02-23T01:30:16.655Z,46.60
2023-02-23T01:32:20.306Z,46.23
2023-02-23T01:34:23.219Z,47.47
2023-02-23T01:36:28.972Z,45.23
2023-02-23T01:38:31.980Z,44.70
2023-02-23T01:40:37.118Z,48.40
2023-02-23T01:42:42.174Z,48.60
2023-02-23T01:45:21.031Z,43.97
2023-02-23T01:47:26.826Z,49.30
2023-02-23T01:49:31.128Z,47.93
2023-02-23T01:51:37.526Z,47.07
2023-02-23T01:53:44.347Z,42.80
2023-02-23T01:55:50.906Z,45.50
2023-02-23T01:57:56.976Z,45.27
2023-02-23T02:00:00.213Z,50.13
2023-02-23T02:02:05.485Z,48.83
2023-02-23T02:04:09.353Z,49.87
2023-02-23T02:06:15.246Z,47.47
2023-02-23T02:08:19.183Z,50.07
2023-02-23T02:10:39.632Z,48.00
2023-02-23T02:12:44.870Z,49.97
2023-02-23T02:14:48.045Z,50.30
2023-02-23T02:17:06.875Z,51.40
2023-02-23T02:19:33.661Z,47.60
2023-02-23T02:22:27.057Z,51.07
2023-02-23T02:25:04.485Z,48.83
2023-02-23T02:27:26.852Z,50.57
2023-02-23T02:29:52.341Z,48.53
2023-02-23T02:32:19.816Z,51.17
2023-02-23T02:34:49.815Z,48.73
2023-02-23T02:37:19.086Z,49.10
2023-02-23T02:39:34.990Z,46.60
2023-02-23T02:41:51.415Z,50.20
2023-02-23T02:43:59.426Z,49.87
2023-02-23T02:46:06.235Z,52.33
2023-02-23T02:48:18.392Z,52.10
2023-02-23T02:50:25.571Z,53.60
2023-02-23T02:52:32.418Z,49.60
2023-02-23T02:54:39.630Z,51.80
2023-02-23T02:56:44.561Z,49.60
2023-02-23T02:58:50.956Z,51.30
2023-02-23T03:01:12.098Z,48.60
2023-02-23T03:03:47.388Z,49.70
2023-02-23T03:06:09.471Z,49.10
2023-02-23T03:08:37.753Z,49.70
2023-02-23T03:11:04.971Z,49.67
2023-02-23T03:13:34.347Z,49.30
2023-02-23T03:16:00.149Z,50.53
2023-02-23T03:18:31.882Z,49.27
2023-02-23T03:21:00.973Z,49.57
2023-02-23T03:23:28.388Z,47.83
2023-02-23T03:25:54.099Z,52.17
2023-02-23T03:28:18.319Z,51.30
2023-02-23T03:30:42.236Z,50.97
2023-02-23T03:33:07.879Z,49.30
2023-02-23T03:35:33.164Z,49.90
2023-02-23T03:37:58.106Z,47.33
2023-02-23T03:40:24.609Z,51.43
2023-02-23T03:42:50.598Z,46.97
2023-02-23T03:45:11.727Z,47.47
2023-02-23T03:47:34.282Z,47.97
2023-02-23T03:49:57.710Z,49.90
2023-02-23T03:52:22.882Z,50.73
2023-02-23T03:54:46.550Z,48.17
2023-02-23T03:57:09.659Z,49.10
2023-02-23T03:59:33.062Z,48.00
2023-02-23T04:01:54.367Z,44.70
2023-02-23T04:04:16.337Z,48.07
2023-02-23T04:06:37.810Z,47.17
2023-02-23T04:08:58.809Z,47.33
2023-02-23T04:11:24.201Z,49.73
2023-02-23T04:13:27.404Z,47.20
2023-02-23T04:15:33.170Z,52.17
2023-02-23T04:17:36.559Z,51.40
2023-02-23T04:19:39.579Z,47.97
2023-02-23T04:21:42.582Z,46.77
2023-02-23T04:23:45.682Z,44.73
2023-02-23T04:25:49.221Z,48.50
2023-02-23T04:27:53.347Z,47.80
2023-02-23T04:29:57.673Z,44.73
2023-02-23T04:32:02.041Z,48.03
2023-02-23T04:34:05.632Z,51.30
2023-02-23T04:36:09.049Z,48.97
2023-02-23T04:38:12.073Z,46.00
2023-02-23T04:40:15.425Z,49.47
2023-02-23T04:42:19.363Z,51.40
2023-02-23T04:44:22.577Z,51.03
2023-02-23T04:46:25.910Z,51.40
2023-02-23T04:48:30.214Z,51.50
2023-02-23T04:50:33.292Z,54.17
2023-02-23T04:52:37.618Z,56.77
2023-02-23T04:54:41.816Z,55.43
2023-02-23T04:56:44.992Z,53.10
2023-02-23T04:58:47.970Z,53.53
2023-02-23T05:00:51.477Z,52.30
2023-02-23T05:02:54.860Z,49.13
2023-02-23T05:05:00.754Z,57.60
2023-02-23T05:07:04.644Z,56.67
2023-02-23T05:09:07.794Z,56.13
2023-02-23T05:11:11.218Z,58.20
2023-02-23T05:13:14.125Z,55.90
2023-02-23T05:15:17.530Z,52.57
2023-02-23T05:17:20.506Z,52.47
2023-02-23T05:19:24.038Z,56.20
2023-02-23T05:21:28.587Z,50.90
2023-02-23T05:23:32.069Z,50.33
2023-02-23T05:25:35.752Z,53.00
2023-02-23T05:27:38.747Z,51.80
2023-02-23T05:29:41.722Z,54.87
2023-02-23T05:31:44.870Z,52.47
2023-02-23T05:33:48.000Z,53.97
2023-02-23T05:35:51.222Z,56.40
2023-02-23T05:37:55.562Z,48.80
2023-02-23T05:39:58.564Z,52.33
2023-02-23T05:42:01.459Z,52.93
2023-02-23T05:44:04.925Z,53.07
2023-02-23T05:46:08.542Z,53.00
2023-02-23T05:48:14.058Z,49.90
2023-02-23T05:50:18.558Z,52.30
2023-02-23T05:52:21.593Z,52.53
2023-02-23T05:54:25.951Z,53.83
2023-02-23T05:56:29.140Z,55.50
2023-02-23T05:58:32.562Z,51.30
2023-02-23T06:00:35.516Z,50.93
2023-02-23T06:02:38.581Z,54.13
2023-02-23T06:04:41.983Z,52.47
2023-02-23T06:06:45.450Z,53.93
2023-02-23T06:08:48.461Z,53.47
2023-02-23T06:10:52.945Z,50.40
2023-02-23T06:12:56.237Z,49.67
2023-02-23T06:14:59.214Z,48.10
2023-02-23T06:17:02.269Z,55.47
2023-02-23T06:19:05.278Z,55.63
2023-02-23T06:21:08.660Z,55.20
2023-02-23T06:23:12.138Z,52.10
2023-02-23T06:25:15.214Z,53.40
2023-02-23T06:27:19.572Z,49.20
2023-02-23T06:29:23.815Z,52.67
2023-02-23T06:31:26.824Z,54.03
2023-02-23T06:33:29.952Z,49.57
2023-02-23T06:35:33.308Z,53.13
2023-02-23T06:37:36.745Z,50.20
2023-02-23T06:39:40.215Z,50.33
2023-02-23T06:41:43.680Z,55.50
2023-02-23T06:43:48.284Z,55.53
2023-02-23T06:45:52.478Z,53.10
2023-02-23T06:47:56.986Z,53.70
2023-02-23T06:50:02.029Z,51.30
2023-02-23T06:52:05.138Z,51.13
2023-02-23T06:54:08.284Z,53.03
2023-02-23T06:56:12.779Z,52.10
2023-02-23T06:58:15.901Z,53.63
2023-02-23T07:00:21.504Z,53.00
2023-02-23T07:02:24.837Z,53.67
2023-02-23T07:04:27.809Z,53.47
2023-02-23T07:06:31.467Z,52.07
2023-02-23T07:08:34.958Z,54.17
2023-02-23T07:10:37.921Z,52.77
2023-02-23T07:12:41.055Z,53.57
2023-02-23T07:14:44.250Z,51.30
2023-02-23T07:16:48.952Z,53.63
2023-02-23T07:18:52.390Z,54.37
2023-02-23T07:20:55.456Z,53.00
2023-02-23T07:22:58.436Z,51.33
2023-02-23T07:25:01.758Z,51.93
2023-02-23T07:27:04.932Z,54.03
2023-02-23T07:29:08.028Z,50.83
2023-02-23T07:31:11.083Z,52.50
2023-02-23T07:33:15.516Z,55.03
2023-02-23T07:35:18.671Z,52.97
2023-02-23T07:37:21.706Z,51.90
2023-02-23T07:39:25.634Z,55.00
2023-02-23T07:41:28.689Z,53.20
2023-02-23T07:43:32.020Z,54.67
2023-02-23T07:45:35.350Z,50.90
2023-02-23T07:47:39.530Z,53.07
2023-02-23T07:49:43.868Z,52.80
2023-02-23T07:51:47.379Z,52.57
2023-02-23T07:53:50.798Z,52.13
2023-02-23T07:56:18.499Z,50.67
2023-02-23T07:58:21.461Z,50.57
2023-02-23T08:00:27.519Z,50.90
2023-02-23T08:02:32.231Z,49.70
2023-02-23T08:04:35.327Z,51.97
2023-02-23T08:06:39.791Z,49.93
2023-02-23T08:08:43.086Z,49.30
2023-02-23T08:10:46.149Z,46.77
2023-02-23T08:12:49.506Z,51.60
2023-02-23T08:14:52.819Z,49.00
2023-02-23T08:16:55.772Z,49.50
2023-02-23T08:18:59.906Z,48.63
2023-02-23T08:21:05.351Z,46.53
2023-02-23T08:23:11.593Z,50.87
2023-02-23T08:25:14.620Z,49.90
2023-02-23T08:27:17.611Z,51.90
2023-02-23T08:29:21.462Z,50.67
2023-02-23T08:31:25.401Z,52.70
2023-02-23T08:33:28.567Z,51.23
2023-02-23T08:35:32.146Z,53.17
2023-02-23T08:37:35.469Z,52.73
2023-02-23T08:39:40.488Z,50.87
2023-02-23T08:41:44.494Z,52.60
2023-02-23T08:43:47.572Z,53.90
2023-02-23T08:45:50.467Z,55.30
2023-02-23T08:47:55.745Z,54.60
2023-02-23T08:49:58.858Z,54.33
2023-02-23T08:52:01.855Z,56.17
2023-02-23T08:54:04.892Z,54.20
2023-02-23T08:56:10.037Z,49.90
2023-02-23T08:58:15.314Z,50.83
2023-02-23T09:00:19.249Z,49.37
2023-02-23T09:02:24.043Z,48.43
2023-02-23T09:04:32.665Z,45.90
2023-02-23T09:06:36.262Z,47.57
2023-02-23T09:08:39.441Z,44.00
2023-02-23T09:10:43.861Z,48.00
2023-02-23T09:12:48.465Z,45.93
2023-02-23T09:14:53.916Z,46.00
2023-02-23T09:16:56.877Z,44.50
2023-02-23T09:19:01.436Z,43.57
2023-02-23T09:21:08.703Z,42.10
2023-02-23T09:23:11.992Z,38.90
2023-02-23T09:25:18.267Z,35.97
2023-02-23T09:27:21.295Z,34.50
2023-02-23T09:29:25.635Z,34.47
2023-02-23T09:31:29.227Z,38.77
2023-02-23T09:33:32.234Z,36.50
2023-02-23T09:35:36.319Z,37.17
2023-02-23T09:37:39.390Z,39.97
2023-02-23T09:39:43.600Z,40.67
2023-02-23T09:42:00.323Z,40.00
2023-02-23T09:44:05.054Z,42.63
2023-02-23T09:46:19.926Z,40.57
2023-02-23T09:48:24.909Z,38.30
2023-02-23T09:50:29.867Z,41.77
2023-02-23T09:52:40.297Z,39.67
2023-02-23T09:54:44.297Z,37.77
2023-02-23T09:56:48.752Z,36.70
2023-02-23T09:58:51.787Z,39.27
2023-02-23T10:01:18.110Z,39.40
2023-02-23T10:03:26.026Z,38.60
2023-02-23T10:05:31.752Z,38.10
2023-02-23T10:07:44.765Z,40.33
2023-02-23T10:10:01.890Z,40.00
2023-02-23T10:12:08.852Z,37.33
2023-02-23T10:14:25.483Z,37.60
2023-02-23T10:16:39.501Z,37.90
2023-02-23T10:18:50.136Z,35.63
2023-02-23T10:21:00.190Z,36.00
2023-02-23T10:23:06.924Z,37.03
2023-02-23T10:25:13.892Z,35.00
2023-02-23T10:27:18.653Z,36.10
2023-02-23T10:29:24.819Z,37.73
2023-02-23T10:31:32.442Z,36.00
2023-02-23T10:33:38.449Z,34.07
2023-02-23T10:35:43.086Z,34.93
2023-02-23T10:37:46.767Z,35.40
2023-02-23T10:39:51.533Z,35.40
2023-02-23T10:41:54.870Z,33.93
2023-02-23T10:44:02.592Z,33.60
2023-02-23T10:46:21.158Z,35.53
2023-02-23T10:48:26.359Z,33.57
2023-02-23T10:50:30.679Z,35.47
2023-02-23T10:52:41.710Z,34.70
2023-02-23T10:54:47.961Z,34.00
2023-02-23T10:56:51.440Z,34.07
2023-02-23T10:58:55.756Z,32.30
2023-02-23T11:01:10.676Z,32.37
2023-02-23T11:03:29.384Z,31.40
2023-02-23T11:05:38.725Z,34.47
2023-02-23T11:07:45.174Z,29.87
2023-02-23T11:09:49.534Z,28.63
2023-02-23T11:12:00.124Z,29.67
2023-02-23T11:14:18.046Z,30.70
2023-02-23T11:16:23.157Z,28.93
2023-02-23T11:18:26.483Z,28.87
2023-02-23T11:20:33.531Z,28.77
2023-02-23T11:22:38.150Z,32.37
2023-02-23T11:24:42.765Z,28.73
2023-02-23T11:26:47.362Z,30.47
2023-02-23T11:28:52.888Z,30.70
2023-02-23T11:30:55.979Z,29.20
2023-02-23T11:33:02.569Z,30.40
2023-02-23T11:35:29.077Z,29.70
2023-02-23T11:37:33.464Z,31.03
2023-02-23T11:39:38.670Z,30.73
2023-02-23T11:41:43.466Z,28.70
2023-02-23T11:43:49.356Z,27.73
2023-02-23T11:45:53.604Z,30.70
2023-02-23T11:47:59.361Z,27.67
2023-02-23T11:50:04.951Z,26.90
2023-02-23T11:52:14.052Z,26.17
2023-02-23T11:54:22.787Z,24.10
2023-02-23T11:56:26.928Z,24.23
2023-02-23T11:58:37.109Z,24.77
2023-02-23T12:00:40.124Z,23.63
2023-02-23T12:02:51.638Z,21.80
2023-02-23T12:05:02.675Z,22.07
2023-02-23T12:07:25.373Z,22.30
2023-02-23T12:09:32.724Z,28.87
2023-02-23T12:11:39.517Z,32.27
2023-02-23T12:13:47.555Z,34.67
2023-02-23T12:15:54.824Z,35.77
2023-02-23T12:18:00.294Z,39.10
2023-02-23T12:20:06.886Z,35.87
2023-02-23T12:22:13.873Z,37.23
2023-02-23T12:24:20.718Z,33.60
2023-02-23T12:26:26.618Z,32.67
2023-02-23T12:28:34.934Z,30.60
2023-02-23T12:30:45.330Z,31.87
2023-02-23T12:32:53.818Z,31.80
2023-02-23T12:35:00.842Z,30.50
2023-02-23T12:37:15.335Z,31.13
2023-02-23T12:39:24.476Z,30.00
2023-02-23T12:41:35.380Z,30.50
2023-02-23T12:43:51.524Z,31.00
2023-02-23T12:45:59.330Z,30.03
2023-02-23T12:48:07.887Z,30.20
2023-02-23T12:50:13.360Z,32.30
2023-02-23T12:52:20.235Z,30.80
2023-02-23T12:54:23.165Z,29.33
2023-02-23T12:56:35.607Z,31.20
2023-02-23T12:58:42.411Z,29.90
2023-02-23T13:00:52.561Z,27.20
2023-02-23T13:03:27.857Z,30.20
2023-02-23T13:05:34.051Z,29.30
2023-02-23T13:07:42.810Z,29.33
2023-02-23T13:09:53.104Z,27.07
2023-02-23T13:12:15.134Z,28.10
2023-02-23T13:14:22.747Z,28.50
2023-02-23T13:16:30.866Z,28.50
2023-02-23T13:18:38.922Z,27.50
2023-02-23T13:20:45.403Z,28.17
2023-02-23T13:22:51.644Z,29.00
2023-02-23T13:24:58.171Z,26.80
2023-02-23T13:27:04.358Z,26.77
2023-02-23T13:29:12.084Z,25.00
2023-02-23T13:31:24.342Z,23.50
2023-02-23T13:33:41.870Z,22.60
2023-02-23T13:35:48.667Z,21.80
2023-02-23T13:37:56.791Z,22.33
2023-02-23T13:40:06.780Z,21.50
2023-02-23T13:42:20.088Z,20.40
2023-02-23T13:44:28.462Z,20.37
2023-02-23T13:46:41.050Z,20.90
2023-02-23T13:48:57.498Z,21.30
2023-02-23T13:51:06.388Z,22.50
2023-02-23T13:53:29.239Z,22.60
2023-02-23T13:55:50.351Z,24.90
2023-02-23T13:57:53.603Z,21.90
2023-02-23T13:59:56.745Z,22.00
2023-02-23T14:02:01.789Z,20.70
2023-02-23T14:04:07.921Z,21.10
2023-02-23T14:06:16.360Z,21.50
2023-02-23T14:08:24.146Z,20.83
2023-02-23T14:10:29.078Z,21.20
2023-02-23T14:12:35.824Z,21.30
2023-02-23T14:14:44.354Z,22.40
2023-02-23T14:17:11.981Z,20.90
2023-02-23T14:19:39.967Z,23.20
2023-02-23T14:21:49.881Z,22.07
2023-02-23T14:23:54.012Z,23.50
2023-02-23T14:26:16.486Z,22.10
2023-02-23T14:28:30.918Z,22.63
2023-02-23T14:30:49.766Z,22.23
2023-02-23T14:32:53.889Z,20.70
2023-02-23T14:34:57.999Z,22.73
2023-02-23T14:37:06.474Z,22.97
2023-02-23T14:39:12.004Z,22.00
2023-02-23T14:41:14.985Z,22.17
2023-02-23T14:43:43.162Z,22.70
2023-02-23T14:45:47.573Z,20.97
2023-02-23T14:47:52.486Z,21.20
2023-02-23T14:49:57.669Z,20.33
2023-02-23T14:52:08.255Z,20.40
2023-02-23T14:54:23.011Z,23.80
2023-02-23T14:56:35.450Z,21.47
2023-02-23T14:58:41.822Z,21.23
2023-02-23T15:00:45.975Z,22.53
2023-02-23T15:02:57.327Z,21.97
2023-02-23T15:05:00.320Z,22.50
2023-02-23T15:07:03.606Z,20.83
2023-02-23T15:09:08.537Z,21.80
2023-02-23T15:11:13.892Z,21.00
2023-02-23T15:13:28.966Z,23.30
2023-02-23T15:15:32.088Z,21.20
2023-02-23T15:17:35.679Z,22.80
2023-02-23T15:19:39.734Z,21.03
2023-02-23T15:21:42.725Z,21.10
2023-02-23T15:23:46.428Z,21.80
2023-02-23T15:25:51.351Z,23.90
2023-02-23T15:27:56.024Z,22.70
2023-02-23T15:29:58.927Z,21.87
2023-02-23T15:32:16.191Z,22.33
2023-02-23T15:34:21.011Z,21.70
2023-02-23T15:36:29.167Z,20.20
2023-02-23T15:38:43.558Z,21.30
2023-02-23T15:40:47.929Z,22.27
2023-02-23T15:42:54.180Z,21.90
2023-02-23T15:45:00.387Z,22.30
2023-02-23T15:47:05.866Z,21.27
2023-02-23T15:49:12.802Z,21.07
2023-02-23T15:51:23.796Z,20.87
2023-02-23T15:53:30.789Z,21.07
2023-02-23T15:55:35.924Z,20.20
2023-02-23T15:57:47.148Z,21.57
2023-02-23T15:59:54.609Z,21.43
2023-02-23T16:02:00.356Z,20.80
2023-02-23T16:04:07.202Z,20.30
2023-02-23T16:06:23.135Z,20.20
2023-02-23T16:08:27.223Z,21.20
2023-02-23T16:10:30.731Z,23.07
2023-02-23T16:12:36.029Z,21.00
2023-02-23T16:14:45.141Z,19.63
2023-02-23T16:17:01.418Z,19.70
2023-02-23T16:19:13.440Z,18.73
2023-02-23T16:21:19.062Z,20.50
2023-02-23T16:23:33.212Z,21.37
2023-02-23T16:25:36.989Z,20.83
2023-02-23T16:27:40.124Z,21.07
2023-02-23T16:29:43.457Z,19.97
2023-02-23T16:31:49.471Z,19.17
2023-02-23T16:33:56.979Z,20.23
2023-02-23T16:36:19.142Z,21.70
2023-02-23T16:38:25.846Z,20.57
2023-02-23T16:40:29.196Z,19.87
2023-02-23T16:42:34.259Z,20.23
2023-02-23T16:44:43.278Z,21.90
2023-02-23T16:47:01.515Z,21.67
2023-02-23T16:49:10.123Z,20.90
2023-02-23T16:51:16.159Z,20.83
2023-02-23T16:53:19.298Z,21.23
2023-02-23T16:55:26.427Z,20.87
2023-02-23T16:57:31.737Z,23.17
2023-02-23T16:59:35.147Z,22.60
2023-02-23T17:01:38.149Z,21.00
2023-02-23T17:06:08.322Z,22.60
2023-02-23T17:08:11.318Z,26.08
2023-02-23T17:10:24.980Z,24.40
2023-02-23T17:12:28.174Z,22.50
2023-02-23T17:14:32.547Z,23.67
2023-02-23T17:16:35.734Z,22.17
2023-02-23T17:18:42.905Z,20.70
2023-02-23T17:20:48.177Z,22.77
2023-02-23T17:22:51.358Z,21.60
2023-02-23T17:24:54.418Z,23.10
2023-02-23T17:26:57.352Z,22.37
2023-02-23T17:29:00.418Z,21.60
2023-02-23T17:31:04.208Z,21.27
2023-02-23T17:33:08.082Z,21.57
2023-02-23T17:35:11.562Z,21.97
2023-02-23T17:37:15.958Z,21.10
2023-02-23T17:39:19.214Z,21.77
2023-02-23T17:41:22.686Z,21.23
2023-02-23T17:43:26.064Z,22.40
2023-02-23T17:45:29.556Z,22.70
2023-02-23T17:47:33.886Z,21.57
2023-02-23T17:49:37.052Z,23.93
2023-02-23T17:51:40.260Z,22.73
2023-02-23T17:53:44.683Z,21.90
2023-02-23T17:55:48.478Z,20.87
2023-02-23T17:57:51.699Z,22.37
2023-02-23T17:59:54.706Z,23.07
2023-02-23T18:01:59.497Z,22.87
2023-02-23T18:04:02.827Z,25.70
2023-02-23T18:06:07.405Z,24.20
2023-02-23T18:08:10.481Z,23.90
2023-02-23T18:10:17.229Z,21.70
2023-02-23T18:12:20.969Z,24.43
2023-02-23T18:14:23.849Z,24.07
2023-02-23T18:16:27.319Z,22.47
2023-02-23T18:18:30.512Z,24.27
2023-02-23T18:20:33.721Z,24.20
2023-02-23T18:22:37.053Z,22.37
2023-02-23T18:24:41.475Z,23.77
2023-02-23T18:26:47.636Z,23.27
2023-02-23T18:28:51.392Z,21.90
2023-02-23T18:30:54.506Z,23.10
2023-02-23T18:33:04.217Z,22.50
2023-02-23T18:35:08.297Z,22.50
2023-02-23T18:37:11.355Z,22.00
2023-02-23T18:39:14.704Z,20.77
2023-02-23T18:41:18.336Z,22.60
2023-02-23T18:43:22.759Z,23.23
2023-02-23T18:45:25.761Z,21.70
2023-02-23T18:47:29.920Z,22.60
2023-02-23T18:49:33.076Z,20.60
2023-02-23T18:51:36.218Z,23.13
2023-02-23T18:53:39.709Z,22.63
2023-02-23T18:55:44.791Z,22.33
2023-02-23T18:57:48.002Z,21.80
2023-02-23T18:59:52.686Z,22.03
2023-02-23T19:01:55.755Z,22.57
2023-02-23T19:04:01.599Z,21.47
2023-02-23T19:06:09.024Z,19.30
2023-02-23T19:08:15.981Z,20.43
2023-02-23T19:10:19.486Z,20.80
2023-02-23T19:12:22.472Z,20.83
2023-02-23T19:14:46.324Z,21.43
2023-02-23T19:16:50.736Z,22.30
2023-02-23T19:18:53.762Z,21.73
2023-02-23T19:20:56.964Z,21.83
2023-02-23T19:23:00.084Z,22.30
2023-02-23T19:25:03.624Z,21.33
2023-02-23T19:27:09.997Z,21.77
2023-02-23T19:29:13.346Z,19.40
2023-02-23T19:31:20.749Z,23.00
2023-02-23T19:33:28.008Z,22.60
2023-02-23T19:35:33.306Z,22.17
2023-02-23T19:37:36.358Z,21.67
2023-02-23T19:39:39.640Z,23.00
2023-02-23T19:41:44.644Z,22.63
2023-02-23T19:43:49.461Z,23.80
2023-02-23T19:45:52.926Z,22.57
2023-02-23T19:47:56.664Z,23.47
2023-02-23T19:50:01.216Z,23.70
2023-02-23T19:52:04.879Z,22.57
2023-02-23T19:54:07.982Z,23.20
2023-02-23T19:56:13.704Z,24.30
2023-02-23T19:58:17.888Z,23.23
2023-02-23T20:00:21.281Z,22.10
2023-02-23T20:02:24.710Z,23.43
2023-02-23T20:04:28.538Z,23.10
2023-02-23T20:06:36.265Z,24.40
2023-02-23T20:08:39.185Z,23.50
2023-02-23T20:10:42.825Z,24.90
2023-02-23T20:12:46.378Z,23.43
2023-02-23T20:14:49.805Z,24.80
2023-02-23T20:16:54.225Z,25.33
2023-02-23T20:18:57.700Z,25.90
2023-02-23T20:21:01.196Z,23.53
2023-02-23T20:23:07.779Z,25.27
2023-02-23T20:25:16.062Z,27.50
2023-02-23T20:27:23.255Z,24.47
2023-02-23T20:29:28.118Z,26.20
2023-02-23T20:31:37.202Z,22.83
2023-02-23T20:33:40.380Z,23.33
2023-02-23T20:35:46.418Z,24.43
2023-02-23T20:37:49.917Z,23.70
2023-02-23T20:39:54.311Z,24.50
2023-02-23T20:41:57.343Z,22.50
2023-02-23T20:44:01.169Z,22.93
2023-02-23T20:46:04.854Z,22.33
2023-02-23T20:48:09.586Z,23.17
2023-02-23T20:50:16.098Z,23.67
2023-02-23T20:52:19.184Z,23.13
2023-02-23T20:54:22.682Z,23.60
2023-02-23T20:56:32.932Z,21.93
2023-02-23T20:58:36.082Z,22.40
2023-02-23T21:00:40.106Z,21.70
2023-02-23T21:02:43.144Z,21.70
2023-02-23T21:04:46.377Z,21.70
2023-02-23T21:06:49.369Z,21.87
2023-02-23T21:08:56.028Z,21.10
2023-02-23T21:10:59.272Z,20.23
2023-02-23T21:13:04.124Z,20.80
2023-02-23T21:15:09.324Z,22.17
2023-02-23T21:17:12.384Z,19.77
2023-02-23T21:19:17.110Z,22.50
2023-02-23T21:21:20.299Z,21.97
2023-02-23T21:23:23.751Z,22.50
2023-02-23T21:25:28.245Z,22.33
2023-02-23T21:27:32.309Z,24.10
2023-02-23T21:29:44.815Z,24.20
2023-02-23T21:31:48.422Z,23.97
2023-02-23T21:33:51.468Z,22.43
2023-02-23T21:35:59.118Z,22.40
2023-02-23T21:38:02.283Z,19.37
2023-02-23T21:40:09.354Z,18.10
2023-02-23T21:42:12.359Z,18.40
2023-02-23T21:44:15.234Z,19.57
2023-02-23T21:46:21.571Z,19.60
2023-02-23T21:48:33.399Z,18.80
2023-02-23T21:50:36.392Z,20.47
2023-02-23T21:52:39.388Z,20.30
2023-02-23T21:54:46.659Z,20.87
2023-02-23T21:56:50.112Z,20.63
2023-02-23T21:58:54.871Z,18.30
2023-02-23T22:00:58.350Z,18.43
2023-02-23T22:03:03.482Z,21.97
2023-02-23T22:05:07.625Z,20.67
2023-02-23T22:07:10.717Z,20.90
2023-02-23T22:09:15.460Z,23.27
2023-02-23T22:11:20.486Z,21.97
2023-02-23T22:13:23.665Z,26.30
2023-02-23T22:15:28.292Z,24.90
2023-02-23T22:17:32.831Z,25.60
2023-02-23T22:19:37.447Z,24.57
2023-02-23T22:21:42.127Z,23.60
2023-02-23T22:23:47.945Z,21.80
2023-02-23T22:25:51.248Z,20.63
2023-02-23T22:27:54.129Z,18.67
2023-02-23T22:29:59.909Z,17.57
2023-02-23T22:32:02.975Z,16.70
2023-02-23T22:34:07.303Z,14.47
2023-02-23T22:36:14.930Z,15.00
2023-02-23T22:38:19.751Z,12.50
2023-02-23T22:40:23.138Z,11.17
2023-02-23T22:42:29.542Z,12.50
2023-02-23T22:44:32.482Z,12.40
2023-02-23T22:46:38.886Z,12.23
2023-02-23T22:48:44.925Z,11.53
2023-02-23T22:50:48.157Z,10.97
2023-02-23T22:52:53.536Z,10.53
2023-02-23T22:54:57.696Z,10.47
2023-02-23T22:57:00.836Z,10.30
2023-02-23T22:59:10.821Z,9.50
2023-02-23T23:01:14.759Z,9.10
2023-02-23T23:03:18.921Z,7.03
2023-02-23T23:05:22.917Z,6.60
2023-02-23T23:07:26.472Z,5.50
2023-02-23T23:09:33.299Z,7.67
2023-02-23T23:11:37.341Z,4.90
2023-02-23T23:13:44.717Z,4.90
2023-02-23T23:15:49.347Z,5.23
2023-02-23T23:17:53.849Z,5.63
2023-02-23T23:19:56.789Z,5.37
2023-02-23T23:22:00.581Z,4.90
2023-02-23T23:24:06.223Z,4.20
2023-02-23T23:26:14.719Z,4.40
2023-02-23T23:28:19.073Z,4.63
2023-02-23T23:30:25.956Z,4.17
2023-02-23T23:32:30.334Z,4.70
2023-02-23T23:34:33.712Z,4.87
2023-02-23T23:36:43.018Z,6.50
2023-02-23T23:38:46.085Z,5.13
2023-02-23T23:40:49.427Z,5.50
2023-02-23T23:42:55.818Z,4.80
2023-02-23T23:44:58.890Z,5.23
2023-02-23T23:47:05.329Z,7.23
2023-02-23T23:49:11.291Z,6.23
2023-02-23T23:51:15.173Z,6.80
2023-02-23T23:53:19.808Z,6.67
2023-02-23T23:55:22.832Z,7.77
2023-02-23T23:57:26.083Z,6.70
2023-02-23T23:59:31.903Z,8.10
